createdAt,value
2022-09-21T00:02:26.157Z,10.88
2022-09-21T00:06:30.547Z,6.97
2022-09-21T00:10:32.552Z,6.72
2022-09-21T00:14:34.376Z,4.97
2022-09-21T00:18:36.634Z,6.22
2022-09-21T00:22:38.413Z,11.07
2022-09-21T00:26:40.004Z,7.30
2022-09-21T00:30:41.943Z,9.75
2022-09-21T00:34:43.607Z,7.93
2022-09-21T00:38:49.183Z,10.18
2022-09-21T00:42:51.045Z,6.15
2022-09-21T00:46:55.698Z,10.43
2022-09-21T00:51:01.997Z,7.53
2022-09-21T00:55:16.029Z,11.40
2022-09-21T00:59:21.657Z,9.80
2022-09-21T01:03:24.126Z,7.32
2022-09-21T01:07:29.635Z,7.63
2022-09-21T01:11:55.062Z,8.65
2022-09-21T01:16:15.424Z,11.15
2022-09-21T01:20:22.743Z,5.47
2022-09-21T01:24:42.170Z,11.00
2022-09-21T01:29:10.630Z,7.32
2022-09-21T01:33:12.551Z,11.27
2022-09-21T01:37:54.305Z,7.97
2022-09-21T01:41:59.187Z,9.70
2022-09-21T01:46:04.122Z,5.10
2022-09-21T01:50:08.873Z,10.18
2022-09-21T01:54:15.196Z,12.98
2022-09-21T01:58:33.182Z,7.10
2022-09-21T02:02:41.324Z,7.13
2022-09-21T02:06:46.272Z,10.43
2022-09-21T02:10:51.419Z,10.52
2022-09-21T02:14:57.474Z,12.38
2022-09-21T02:19:36.986Z,7.35
2022-09-21T02:23:50.033Z,11.60
2022-09-21T02:28:06.551Z,11.23
2022-09-21T02:32:55.417Z,11.02
2022-09-21T02:37:11.189Z,10.20
2022-09-21T02:41:28.230Z,7.38
2022-09-21T02:45:41.739Z,12.55
2022-09-21T02:49:48.741Z,9.75
2022-09-21T02:53:53.722Z,8.27
2022-09-21T02:57:56.194Z,11.13
2022-09-21T03:01:57.836Z,9.07
2022-09-21T03:05:59.904Z,12.30
2022-09-21T03:10:01.912Z,8.95
2022-09-21T03:14:08.634Z,12.77
2022-09-21T03:18:11.372Z,13.43
2022-09-21T03:22:14.493Z,13.43
2022-09-21T03:26:16.025Z,10.40
2022-09-21T03:30:17.674Z,12.50
2022-09-21T03:34:19.218Z,15.80
2022-09-21T03:38:21.704Z,10.57
2022-09-21T03:42:23.394Z,13.75
2022-09-21T03:46:24.970Z,12.63
2022-09-21T03:50:28.767Z,11.80
2022-09-21T03:54:30.347Z,13.75
2022-09-21T03:58:32.135Z,13.32
2022-09-21T04:02:37.516Z,13.90
2022-09-21T04:06:39.054Z,14.25
2022-09-21T04:10:42.878Z,15.52
2022-09-21T04:14:44.795Z,19.92
2022-09-21T04:18:50.352Z,13.60
2022-09-21T04:22:52.693Z,17.45
2022-09-21T04:26:54.448Z,12.18
2022-09-21T04:30:56.094Z,13.52
2022-09-21T04:34:58.165Z,18.50
2022-09-21T04:39:02.654Z,10.65
2022-09-21T04:43:04.228Z,10.80
2022-09-21T04:47:05.835Z,11.40
2022-09-21T04:51:08.969Z,15.38
2022-09-21T04:55:10.553Z,10.18
2022-09-21T04:59:12.126Z,13.88
2022-09-21T05:03:13.709Z,11.20
2022-09-21T05:07:15.692Z,14.60
2022-09-21T05:11:19.190Z,9.57
2022-09-21T05:15:22.051Z,8.85
2022-09-21T05:19:23.751Z,12.35
2022-09-21T05:23:26.446Z,11.55
2022-09-21T05:27:28.002Z,11.38
2022-09-21T05:31:45.752Z,13.75
2022-09-21T05:36:29.326Z,11.07
2022-09-21T05:40:31.571Z,11.13
2022-09-21T05:44:33.605Z,12.13
2022-09-21T05:48:43.052Z,14.30
2022-09-21T05:53:05.642Z,11.23
2022-09-21T05:57:30.953Z,10.10
2022-09-21T06:02:05.186Z,11.00
2022-09-21T06:06:08.687Z,9.95
2022-09-21T06:10:13.419Z,11.75
2022-09-21T06:14:15.295Z,12.13
2022-09-21T06:18:18.217Z,13.52
2022-09-21T06:22:20.073Z,9.65
2022-09-21T06:26:21.649Z,12.45
2022-09-21T06:30:23.249Z,11.75
2022-09-21T06:34:24.904Z,10.57
2022-09-21T06:38:28.111Z,14.27
2022-09-21T06:42:29.818Z,9.57
2022-09-21T06:46:31.646Z,11.25
2022-09-21T06:50:33.458Z,12.85
2022-09-21T06:54:35.474Z,9.93
2022-09-21T06:58:37.845Z,12.02
2022-09-21T07:02:43.556Z,11.60
2022-09-21T07:06:45.517Z,17.52
2022-09-21T07:10:47.090Z,12.55
2022-09-21T07:14:48.587Z,11.65
2022-09-21T07:18:50.243Z,11.82
2022-09-21T07:22:51.950Z,10.40
2022-09-21T07:26:53.645Z,9.93
2022-09-21T07:30:55.274Z,10.88
2022-09-21T07:34:57.956Z,9.37
2022-09-21T07:38:59.499Z,7.85
2022-09-21T07:43:04.747Z,6.53
2022-09-21T07:47:06.510Z,5.47
2022-09-21T07:51:11.732Z,6.60
2022-09-21T07:55:13.966Z,7.75
2022-09-21T07:59:15.492Z,4.87
2022-09-21T08:03:17.206Z,5.05
2022-09-21T08:07:21.071Z,4.72
2022-09-21T08:11:22.941Z,3.25
2022-09-21T08:15:46.880Z,4.93
2022-09-21T08:19:46.392Z,3.85
2022-09-21T08:23:49.375Z,4.75
2022-09-21T08:31:53.640Z,3.05
2022-09-21T08:35:56.918Z,4.72
2022-09-21T08:39:58.727Z,3.72
2022-09-21T08:44:10.896Z,1.95
2022-09-21T08:48:25.234Z,5.93
2022-09-21T08:52:31.621Z,3.22
2022-09-21T08:56:53.734Z,1.90
2022-09-21T09:01:19.838Z,3.00
2022-09-21T09:05:36.699Z,3.15
2022-09-21T09:09:58.887Z,3.95
2022-09-21T09:14:34.639Z,5.65
2022-09-21T09:18:55.433Z,3.38
2022-09-21T09:23:13.738Z,3.13
2022-09-21T09:27:21.633Z,2.08
2022-09-21T09:31:28.176Z,2.80
2022-09-21T09:35:45.532Z,4.03
2022-09-21T09:39:54.825Z,3.42
2022-09-21T09:44:12.559Z,5.43
2022-09-21T09:48:22.914Z,3.60
2022-09-21T09:52:26.842Z,3.73
2022-09-21T09:56:28.654Z,2.35
2022-09-21T10:00:30.625Z,3.20
2022-09-21T10:04:34.731Z,4.47
2022-09-21T10:08:48.792Z,3.28
2022-09-21T10:12:52.749Z,2.67
2022-09-21T10:16:56.375Z,2.10
2022-09-21T10:21:03.079Z,4.57
2022-09-21T10:25:06.277Z,5.53
2022-09-21T10:29:18.865Z,3.60
2022-09-21T10:33:22.291Z,6.95
2022-09-21T10:37:34.891Z,2.55
2022-09-21T10:41:37.752Z,2.45
2022-09-21T10:49:57.394Z,3.40
2022-09-21T10:53:59.044Z,2.80
2022-09-21T10:58:01.032Z,3.88
2022-09-21T11:02:24.072Z,4.43
2022-09-21T11:06:31.699Z,2.22
2022-09-21T11:10:46.402Z,1.77
2022-09-21T11:15:10.042Z,1.35
2022-09-21T11:19:28.324Z,3.13
2022-09-21T11:23:53.765Z,1.77
2022-09-21T11:28:02.645Z,2.78
2022-09-21T11:32:06.056Z,1.65
2022-09-21T11:36:32.129Z,1.60
2022-09-21T11:40:55.870Z,2.17
2022-09-21T11:45:00.714Z,2.55
2022-09-21T11:49:41.650Z,4.70
2022-09-21T11:54:06.717Z,1.95
2022-09-21T11:58:19.269Z,2.42
2022-09-21T12:02:26.667Z,5.70
2022-09-21T12:06:56.268Z,1.83
2022-09-21T12:11:17.382Z,2.00
2022-09-21T12:15:22.349Z,1.83
2022-09-21T12:19:45.447Z,1.95
2022-09-21T12:23:55.055Z,2.35
2022-09-21T12:28:31.375Z,4.35
2022-09-21T12:32:53.599Z,3.60
2022-09-21T12:37:11.343Z,2.72
2022-09-21T12:41:23.957Z,2.20
2022-09-21T12:45:56.791Z,2.22
2022-09-21T12:50:05.473Z,2.13
2022-09-21T12:54:19.038Z,0.85
2022-09-21T12:58:30.328Z,0.88
2022-09-21T13:02:41.676Z,2.97
2022-09-21T13:06:53.820Z,2.27
2022-09-21T13:11:01.863Z,1.50
2022-09-21T13:15:14.672Z,1.50
2022-09-21T13:19:27.018Z,1.48
2022-09-21T13:23:42.379Z,2.45
2022-09-21T13:28:17.038Z,3.50
2022-09-21T13:32:18.619Z,2.40
2022-09-21T13:36:35.407Z,1.13
2022-09-21T13:40:36.985Z,2.17
2022-09-21T13:44:43.840Z,1.83
2022-09-21T13:48:53.498Z,2.75
2022-09-21T13:53:07.781Z,1.70
2022-09-21T13:57:28.645Z,3.50
2022-09-21T14:01:49.231Z,1.20
2022-09-21T14:05:54.639Z,1.95
2022-09-21T14:10:00.988Z,2.30
2022-09-21T14:14:12.391Z,1.73
2022-09-21T14:18:17.098Z,2.53
2022-09-21T14:22:20.186Z,1.67
2022-09-21T14:26:35.429Z,1.35
2022-09-21T14:30:37.274Z,1.85
2022-09-21T14:34:41.380Z,3.53
2022-09-21T14:38:54.399Z,0.93
2022-09-21T14:43:03.648Z,2.55
2022-09-21T14:47:34.085Z,1.85
2022-09-21T14:51:44.355Z,0.50
2022-09-21T14:55:55.252Z,1.90
2022-09-21T15:00:26.633Z,2.17
2022-09-21T15:04:56.263Z,1.15
2022-09-21T15:09:22.357Z,2.15
2022-09-21T15:13:42.603Z,2.15
2022-09-21T15:18:00.792Z,1.33
2022-09-21T15:22:20.933Z,2.15
2022-09-21T15:26:29.278Z,1.33
2022-09-21T15:30:33.245Z,1.35
2022-09-21T15:34:34.938Z,1.25
2022-09-21T15:38:38.917Z,0.82
2022-09-21T15:43:01.091Z,1.15
2022-09-21T15:47:04.226Z,2.05
2022-09-21T15:51:17.117Z,1.70
2022-09-21T15:55:21.656Z,1.50
2022-09-21T15:59:23.654Z,2.72
2022-09-21T16:03:28.621Z,1.37
2022-09-21T16:07:36.434Z,1.33
2022-09-21T16:11:38.099Z,1.55
2022-09-21T16:15:40.801Z,0.82
2022-09-21T16:20:19.936Z,0.68
2022-09-21T16:24:23.045Z,1.83
2022-09-21T16:28:39.262Z,1.20
2022-09-21T16:32:41.843Z,2.00
2022-09-21T16:36:44.181Z,0.63
2022-09-21T16:40:46.941Z,1.73
2022-09-21T16:44:49.007Z,3.35
2022-09-21T16:48:50.563Z,2.55
2022-09-21T16:52:52.487Z,4.18
2022-09-21T16:56:57.498Z,1.85
2022-09-21T17:01:00.964Z,2.28
2022-09-21T17:05:02.858Z,1.70
2022-09-21T17:09:20.533Z,2.17
2022-09-21T17:13:22.464Z,2.58
2022-09-21T17:17:25.575Z,3.17
2022-09-21T17:21:27.372Z,4.20
2022-09-21T17:25:30.096Z,2.40
2022-09-21T17:29:32.548Z,3.13
2022-09-21T17:33:34.145Z,2.10
2022-09-21T17:37:38.152Z,2.00
2022-09-21T17:42:02.391Z,5.63
2022-09-21T17:46:08.428Z,1.75
2022-09-21T17:50:12.888Z,3.90
2022-09-21T17:54:17.849Z,1.70
2022-09-21T17:58:45.773Z,4.88
2022-09-21T18:02:48.827Z,4.05
2022-09-21T18:11:19.532Z,2.88
2022-09-21T18:15:40.283Z,1.50
2022-09-21T18:20:06.087Z,6.43
2022-09-21T18:24:18.849Z,2.33
2022-09-21T18:28:32.029Z,3.60
2022-09-21T18:36:49.621Z,2.42
2022-09-21T18:41:13.105Z,3.50
2022-09-21T18:45:36.881Z,3.15
2022-09-21T18:50:02.832Z,3.63
2022-09-21T18:54:04.687Z,3.22
2022-09-21T18:58:08.081Z,5.30
2022-09-21T19:02:16.173Z,3.53
2022-09-21T19:06:48.578Z,3.72
2022-09-21T19:11:16.451Z,6.05
2022-09-21T19:15:48.748Z,2.53
2022-09-21T19:20:15.653Z,3.75
2022-09-21T19:24:44.556Z,2.63
2022-09-21T19:28:46.178Z,4.38
2022-09-21T19:33:00.068Z,5.35
2022-09-21T19:37:06.970Z,3.83
2022-09-21T19:41:32.852Z,4.65
2022-09-21T19:46:05.060Z,3.13
2022-09-21T19:50:21.819Z,2.47
2022-09-21T19:54:44.276Z,2.55
2022-09-21T19:59:05.489Z,5.80
2022-09-21T20:03:20.418Z,3.50
2022-09-21T20:07:22.015Z,2.83
2022-09-21T20:11:41.502Z,5.45
2022-09-21T20:16:18.361Z,3.88
2022-09-21T20:20:26.770Z,3.47
2022-09-21T20:24:33.707Z,2.33
2022-09-21T20:28:36.016Z,2.83
2022-09-21T20:32:40.938Z,2.23
2022-09-21T20:36:42.555Z,2.85
2022-09-21T20:40:45.177Z,3.45
2022-09-21T20:44:46.790Z,3.55
2022-09-21T20:48:48.401Z,3.60
2022-09-21T20:52:49.916Z,1.42
2022-09-21T20:56:51.489Z,3.28
2022-09-21T21:00:58.576Z,2.65
2022-09-21T21:05:01.046Z,5.88
2022-09-21T21:09:02.758Z,7.73
2022-09-21T21:13:05.234Z,3.10
2022-09-21T21:17:07.183Z,1.20
2022-09-21T21:21:09.143Z,3.53
2022-09-21T21:25:10.789Z,1.85
2022-09-21T21:29:12.424Z,4.68
2022-09-21T21:33:13.978Z,3.38
2022-09-21T21:37:16.640Z,5.00
2022-09-21T21:41:18.157Z,3.30
2022-09-21T21:45:21.545Z,2.85
2022-09-21T21:49:24.224Z,2.47
2022-09-21T21:53:27.219Z,3.63
2022-09-21T21:57:28.765Z,2.03
2022-09-21T22:01:31.162Z,4.68
2022-09-21T22:05:34.504Z,1.77
2022-09-21T22:09:36.056Z,4.68
2022-09-21T22:13:39.726Z,5.03
2022-09-21T22:17:41.322Z,3.38
2022-09-21T22:21:53.813Z,2.20
2022-09-21T22:26:04.019Z,1.65
2022-09-21T22:30:06.389Z,5.10
2022-09-21T22:34:09.137Z,2.43
2022-09-21T22:38:12.128Z,4.38
2022-09-21T22:42:14.361Z,4.18
2022-09-21T22:46:18.829Z,5.37
2022-09-21T22:50:20.406Z,3.75
2022-09-21T22:54:22.016Z,3.42
2022-09-21T22:58:23.513Z,2.55
2022-09-21T23:02:25.313Z,3.10
2022-09-21T23:06:29.375Z,3.65
2022-09-21T23:10:30.885Z,3.28
2022-09-21T23:14:32.771Z,3.13
2022-09-21T23:18:34.929Z,3.20
2022-09-21T23:22:36.807Z,2.37
2022-09-21T23:26:38.793Z,2.05
2022-09-21T23:30:40.497Z,2.13
2022-09-21T23:34:42.055Z,1.35
2022-09-21T23:38:43.811Z,6.32
2022-09-21T23:42:45.397Z,4.40
2022-09-21T23:46:46.960Z,3.75
2022-09-21T23:50:48.502Z,7.53
2022-09-21T23:54:53.025Z,3.97
2022-09-21T23:58:54.728Z,3.60
